Time;durP1;ratioP1;P1;durP2;ratioP2;P2;SDS_P1;SDS_P2;PMS_P1;PMS_P2;Temp;Humidity;BMP_temperature;BMP_pressure;BME280_temperature;BME280_humidity;BME280_pressure;Samples;Min_cycle;Max_cycle;Signal;HPM_P1;HPM_P2
2023/05/06 00:01:09;;;;;;;34.10;24.38;;;12.10;99.90;;;;;;5020109;28;20025;-83
2023/05/06 00:03:35;;;;;;;35.30;24.92;;;12.00;99.90;;;;;;5020204;28;20064;-83
2023/05/06 00:06:05;;;;;;;39.00;26.55;;;12.00;99.90;;;;;;5032966;28;20034;-83
2023/05/06 00:08:30;;;;;;;37.80;25.65;;;12.00;99.90;;;;;;5040155;28;20046;-83
2023/05/06 00:10:56;;;;;;;36.90;25.67;;;11.90;99.90;;;;;;5021886;28;20021;-83
2023/05/06 00:13:22;;;;;;;37.42;25.33;;;11.90;99.90;;;;;;5022793;28;20031;-84
2023/05/06 00:15:47;;;;;;;37.85;26.70;;;11.90;99.90;;;;;;5031764;28;20041;-83
2023/05/06 00:18:14;;;;;;;39.92;25.88;;;11.80;99.90;;;;;;5021702;28;20485;-83
2023/05/06 00:20:40;;;;;;;39.03;26.25;;;11.80;99.90;;;;;;5021878;28;20087;-83
2023/05/06 00:23:07;;;;;;;44.92;27.17;;;11.70;99.90;;;;;;5039712;28;20135;-83
2023/05/06 00:25:33;;;;;;;49.75;29.23;;;11.80;99.90;;;;;;5020835;28;20469;-83
2023/05/06 00:27:59;;;;;;;46.90;29.77;;;11.80;99.90;;;;;;5030626;28;20022;-83
2023/05/06 00:30:25;;;;;;;46.80;28.67;;;11.90;99.90;;;;;;5028226;28;20037;-83
2023/05/06 00:32:51;;;;;;;43.65;27.63;;;11.80;99.90;;;;;;5039369;28;20030;-83
2023/05/06 00:35:16;;;;;;;40.97;26.98;;;11.80;99.90;;;;;;5032006;28;20122;-83
2023/05/06 00:37:45;;;;;;;46.05;28.70;;;11.80;99.90;;;;;;5032588;28;20040;-83
2023/05/06 00:40:12;;;;;;;44.75;28.95;;;11.80;99.90;;;;;;5032530;28;20037;-83
2023/05/06 00:42:38;;;;;;;50.55;28.27;;;11.80;99.90;;;;;;5035757;28;20044;-83
2023/05/06 00:45:05;;;;;;;38.17;27.65;;;11.80;99.90;;;;;;5023422;28;20481;-83
2023/05/06 00:47:32;;;;;;;44.42;29.17;;;11.80;99.90;;;;;;5042851;28;20125;-83
2023/05/06 00:49:57;;;;;;;52.13;29.75;;;11.80;99.90;;;;;;5021716;28;20075;-83
2023/05/06 00:52:23;;;;;;;39.75;27.88;;;11.70;99.90;;;;;;5021311;28;20033;-83
2023/05/06 00:54:49;;;;;;;44.00;29.77;;;11.70;99.90;;;;;;5012277;28;20497;-83
2023/05/06 00:57:15;;;;;;;44.33;28.30;;;11.70;99.90;;;;;;5020367;28;20053;-83
2023/05/06 00:59:41;;;;;;;45.50;29.05;;;11.70;99.90;;;;;;5012622;28;20072;-83
2023/05/06 01:02:08;;;;;;;44.13;30.23;;;11.70;99.90;;;;;;5037897;28;20030;-83
2023/05/06 01:04:34;;;;;;;48.45;29.55;;;11.70;99.90;;;;;;5016164;28;20039;-83
2023/05/06 01:07:21;;;;;;;45.00;28.50;;;11.70;99.90;;;;;;5037569;28;20033;-84
2023/05/06 01:10:06;;;;;;;44.40;27.25;;;11.60;99.90;;;;;;5036925;28;20064;-84
2023/05/06 01:12:50;;;;;;;45.28;29.77;;;11.60;99.90;;;;;;5014061;28;20030;-83
2023/05/06 01:15:24;;;;;;;45.33;28.55;;;11.60;99.90;;;;;;5037886;28;20044;-83
2023/05/06 01:17:53;;;;;;;44.65;29.35;;;11.50;99.90;;;;;;5029800;28;20136;-83
2023/05/06 01:20:20;;;;;;;51.03;31.27;;;11.40;99.90;;;;;;5020010;28;20478;-83
2023/05/06 01:22:48;;;;;;;47.50;30.42;;;11.40;99.90;;;;;;5031483;28;20031;-83
2023/05/06 01:25:22;;;;;;;46.80;30.17;;;11.40;99.90;;;;;;5029551;28;20030;-83
2023/05/06 01:27:48;;;;;;;49.88;30.65;;;11.40;99.90;;;;;;5035354;28;20047;-83
2023/05/06 01:30:17;;;;;;;44.13;28.15;;;11.40;99.90;;;;;;5032109;28;20037;-82
2023/05/06 01:32:56;;;;;;;37.83;26.42;;;11.30;99.90;;;;;;5047384;28;20041;-83
2023/05/06 01:35:31;;;;;;;42.45;26.15;;;11.20;99.90;;;;;;5028873;28;20026;-83
2023/05/06 01:38:21;;;;;;;41.92;28.13;;;11.20;99.90;;;;;;5039459;28;20033;-83
2023/05/06 01:40:53;;;;;;;44.05;30.27;;;11.20;99.90;;;;;;5028727;28;20033;-83
2023/05/06 01:43:19;;;;;;;;;;;11.20;99.90;;;;;;5031188;28;20116;-83
2023/05/06 01:45:52;;;;;;;47.53;30.58;;;11.20;99.90;;;;;;5032288;28;19921;-83
2023/05/06 01:48:30;;;;;;;48.90;31.37;;;11.20;99.90;;;;;;5025138;28;20500;-83
2023/05/06 01:50:57;;;;;;;51.47;31.83;;;11.10;99.90;;;;;;5038969;28;20520;-83
2023/05/06 01:53:22;;;;;;;52.85;31.10;;;11.00;99.90;;;;;;5031263;28;20029;-83
2023/05/06 01:55:48;;;;;;;50.58;31.35;;;11.00;99.90;;;;;;5018615;28;20056;-83
2023/05/06 01:58:15;;;;;;;47.23;30.97;;;10.90;99.90;;;;;;5017691;28;20032;-83
2023/05/06 02:00:41;;;;;;;52.20;32.47;;;10.80;99.90;;;;;;5027841;28;20396;-83
2023/05/06 02:03:07;;;;;;;60.05;32.60;;;10.80;99.90;;;;;;5036711;28;20034;-83
2023/05/06 02:05:33;;;;;;;;;;;10.80;99.90;;;;;;5019603;28;20729;-83
2023/05/06 02:08:00;;;;;;;60.75;33.90;;;10.70;99.90;;;;;;5021758;28;20125;-83
2023/05/06 02:10:25;;;;;;;60.15;34.15;;;10.60;99.90;;;;;;5000588;28;20076;-83
2023/05/06 02:12:58;;;;;;;58.90;34.80;;;10.60;99.90;;;;;;5028807;28;20491;-83
2023/05/06 02:15:24;;;;;;;57.80;33.45;;;10.60;99.90;;;;;;5018710;28;20030;-83
2023/05/06 02:17:50;;;;;;;57.90;35.20;;;10.50;99.90;;;;;;5018824;28;20103;-83
2023/05/06 02:20:16;;;;;;;;;;;10.40;99.90;;;;;;5011243;28;20064;-83
2023/05/06 02:22:42;;;;;;;;;;;10.40;99.90;;;;;;5030039;28;19952;-83
2023/05/06 02:25:07;;;;;;;;;;;10.30;99.90;;;;;;5029942;28;20025;-83
2023/05/06 02:27:35;;;;;;;;;;;10.30;99.90;;;;;;5016466;28;19959;-83
2023/05/06 02:30:01;;;;;;;;;;;10.20;99.90;;;;;;5028011;28;19916;-83
2023/05/06 02:32:28;;;;;;;;;;;10.20;99.90;;;;;;5025455;28;20042;-83
2023/05/06 02:34:54;;;;;;;;;;;10.20;99.90;;;;;;5021959;28;20289;-83
2023/05/06 02:37:21;;;;;;;;;;;10.20;99.90;;;;;;5022191;28;20047;-83
2023/05/06 02:39:46;;;;;;;;;;;10.30;99.90;;;;;;5029883;28;19962;-83
2023/05/06 02:42:12;;;;;;;;;;;10.30;99.90;;;;;;5030394;28;20047;-82
2023/05/06 02:44:38;;;;;;;;;;;10.30;99.90;;;;;;5022167;28;20469;-83
2023/05/06 02:47:04;;;;;;;;;;;10.30;99.90;;;;;;5030219;28;20073;-84
2023/05/06 02:49:29;;;;;;;;;;;10.30;99.90;;;;;;5021997;28;20281;-83
2023/05/06 02:51:55;;;;;;;;;;;10.30;99.90;;;;;;5030670;28;19909;-82
2023/05/06 02:54:21;;;;;;;;;;;10.30;99.90;;;;;;5022728;28;20051;-83
2023/05/06 02:56:46;;;;;;;;;;;10.30;99.90;;;;;;5032468;28;20049;-83
2023/05/06 02:59:12;;;;;;;;;;;10.30;99.90;;;;;;5018193;28;19963;-83
2023/05/06 03:01:38;;;;;;;87.80;43.50;;;10.30;99.90;;;;;;5034286;28;20038;-83
2023/05/06 03:04:04;;;;;;;;;;;10.30;99.90;;;;;;5030907;28;19976;-83
2023/05/06 03:06:30;;;;;;;;;;;10.20;99.90;;;;;;5018628;28;20004;-83
2023/05/06 03:08:56;;;;;;;85.85;42.70;;;10.20;99.90;;;;;;5029955;28;20061;-83
2023/05/06 03:11:22;;;;;;;101.00;45.40;;;10.10;99.90;;;;;;5021914;28;20105;-83
2023/05/06 03:13:48;;;;;;;96.20;42.70;;;10.10;99.90;;;;;;5021720;28;19910;-83
2023/05/06 03:16:13;;;;;;;;;;;10.00;99.90;;;;;;5031499;28;20046;-83
2023/05/06 03:18:42;;;;;;;;;;;10.00;99.90;;;;;;5032282;28;19913;-83
2023/05/06 03:21:10;;;;;;;86.00;43.30;;;10.00;99.90;;;;;;5030430;28;20092;-83
2023/05/06 03:23:37;;;;;;;94.15;45.40;;;9.90;99.90;;;;;;5018202;28;19909;-83
2023/05/06 03:26:03;;;;;;;;;;;10.00;99.90;;;;;;5024096;28;20057;-83
2023/05/06 03:28:28;;;;;;;99.30;43.60;;;9.90;99.90;;;;;;5020568;28;19910;-83
2023/05/06 03:30:55;;;;;;;;;;;9.90;99.90;;;;;;5030403;28;19919;-83
2023/05/06 03:33:20;;;;;;;;;;;9.90;99.90;;;;;;5021475;28;20507;-83
2023/05/06 03:35:46;;;;;;;;;;;9.90;99.90;;;;;;5039829;28;19909;-82
2023/05/06 03:38:12;;;;;;;;;;;9.80;99.90;;;;;;5029707;28;19952;-83
2023/05/06 03:40:45;;;;;;;;;;;9.80;99.90;;;;;;5018160;28;20058;-82
2023/05/06 03:43:12;;;;;;;;;;;9.70;99.90;;;;;;5031380;28;20047;-83
2023/05/06 03:45:38;;;;;;;;;;;9.60;99.90;;;;;;5025494;28;19928;-83
2023/05/06 03:48:04;;;;;;;;;;;9.70;99.90;;;;;;5027174;28;20039;-83
2023/05/06 03:50:32;;;;;;;;;;;9.60;99.90;;;;;;5036572;28;20125;-82
2023/05/06 03:52:57;;;;;;;;;;;9.50;99.90;;;;;;5029698;28;20118;-83
2023/05/06 03:55:26;;;;;;;;;;;9.40;99.90;;;;;;5010397;28;19956;-85
2023/05/06 03:57:51;;;;;;;;;;;9.40;99.90;;;;;;5031489;28;20070;-86
2023/05/06 04:00:19;;;;;;;;;;;9.30;99.90;;;;;;5033903;28;20085;-85
2023/05/06 04:02:49;;;;;;;;;;;9.30;99.90;;;;;;5039480;28;20046;-85
2023/05/06 04:05:21;;;;;;;;;;;9.20;99.90;;;;;;5045505;28;19917;-85
2023/05/06 04:07:47;;;;;;;;;;;9.20;99.90;;;;;;5016671;28;19964;-85
2023/05/06 04:10:13;;;;;;;;;;;9.20;99.90;;;;;;5029097;28;20058;-85
2023/05/06 04:12:41;;;;;;;;;;;9.20;99.90;;;;;;5029113;28;20038;-85
2023/05/06 04:15:09;;;;;;;;;;;9.20;99.90;;;;;;5030421;28;20039;-85
2023/05/06 04:17:37;;;;;;;;;;;9.30;99.90;;;;;;5015570;28;20042;-85
2023/05/06 04:20:05;;;;;;;;;;;9.30;99.90;;;;;;5030553;28;20043;-86
2023/05/06 04:22:32;;;;;;;;;;;9.20;99.90;;;;;;5039014;28;20482;-86
2023/05/06 04:24:59;;;;;;;;;;;9.20;99.90;;;;;;5023252;28;20046;-85
2023/05/06 04:27:28;;;;;;;;;;;9.20;99.90;;;;;;5019617;28;20042;-85
2023/05/06 04:30:29;;;;;;;;;;;9.20;99.90;;;;;;5028271;28;20049;-85
2023/05/06 04:32:54;;;;;;;;;;;9.30;99.90;;;;;;5019516;28;20053;-85
2023/05/06 04:35:20;;;;;;;;;;;9.40;99.90;;;;;;5026240;28;19913;-85
2023/05/06 04:37:47;;;;;;;;;;;9.40;99.90;;;;;;5001518;28;20046;-85
2023/05/06 04:40:19;;;;;;;;;;;9.40;99.90;;;;;;5028943;28;20035;-85
2023/05/06 04:42:47;;;;;;;;;;;9.40;99.90;;;;;;5026724;28;20038;-85
2023/05/06 04:45:18;;;;;;;;;;;9.40;99.90;;;;;;5025359;28;20497;-85
2023/05/06 04:47:47;;;;;;;;;;;9.40;99.90;;;;;;5023791;28;20364;-85
2023/05/06 04:50:14;;;;;;;;;;;9.40;99.90;;;;;;5028517;28;20042;-85
2023/05/06 04:52:40;;;;;;;;;;;9.40;99.90;;;;;;5005964;28;20049;-85
2023/05/06 04:55:06;;;;;;;;;;;9.50;99.90;;;;;;5011564;28;20022;-85
2023/05/06 04:57:34;;;;;;;;;;;9.50;99.90;;;;;;5030110;28;20128;-85
2023/05/06 05:00:02;;;;;;;;;;;9.50;99.90;;;;;;5045800;28;19913;-85
2023/05/06 05:02:28;;;;;;;;;;;9.60;99.90;;;;;;5007315;28;20194;-85
2023/05/06 05:04:54;;;;;;;;;;;9.70;99.90;;;;;;5034628;28;20094;-85
2023/05/06 05:07:21;;;;;;;;;;;9.70;99.90;;;;;;5041554;28;19917;-85
2023/05/06 05:09:46;;;;;;;;;;;9.80;99.90;;;;;;5009054;28;20049;-85
2023/05/06 05:12:12;;;;;;;;;;;9.80;99.90;;;;;;5027652;28;19924;-85
2023/05/06 05:14:41;;;;;;;;;;;9.90;99.90;;;;;;5023480;28;20513;-85
2023/05/06 05:17:09;;;;;;;;;;;10.00;99.90;;;;;;5027771;28;19991;-85
2023/05/06 05:19:36;;;;;;;;;;;10.10;99.90;;;;;;5025496;28;19913;-85
2023/05/06 05:22:02;;;;;;;;;;;10.10;99.90;;;;;;5039913;28;20041;-85
2023/05/06 05:24:29;;;;;;;;;;;10.20;99.90;;;;;;5026399;28;19909;-85
2023/05/06 05:26:55;;;;;;;;;;;10.30;99.90;;;;;;5026287;28;20049;-86
2023/05/06 05:29:21;;;;;;;;;;;10.30;99.90;;;;;;5027042;28;19944;-85
2023/05/06 05:31:47;;;;;;;;;;;10.40;99.90;;;;;;5029770;28;20402;-85
2023/05/06 05:34:13;;;;;;;;;;;10.50;99.90;;;;;;5040926;28;20384;-85
2023/05/06 05:36:39;;;;;;;;;;;10.50;99.90;;;;;;5033265;28;20067;-85
2023/05/06 05:39:08;;;;;;;;;;;10.60;99.90;;;;;;5036015;28;20031;-85
2023/05/06 05:41:40;;;;;;;;;;;10.70;99.90;;;;;;5008290;28;20037;-85
2023/05/06 05:44:06;;;;;;;;;;;10.80;99.90;;;;;;5026178;28;20040;-85
2023/05/06 05:46:31;;;;;;;;;;;10.80;99.90;;;;;;5025981;28;19917;-85
2023/05/06 05:48:57;;;;;;;;;;;10.90;99.90;;;;;;5026201;28;19951;-85
2023/05/06 05:51:23;;;;;;;;;;;11.00;99.90;;;;;;5033114;28;20446;-85
2023/05/06 05:53:50;;;;;;;;;;;11.10;99.90;;;;;;5038635;28;20038;-86
2023/05/06 05:56:17;;;;;;;;;;;11.10;99.90;;;;;;5040561;28;19917;-84
2023/05/06 05:58:46;;;;;;;;;;;11.20;99.90;;;;;;5012659;28;20670;-85
2023/05/06 06:01:11;;;;;;;;;;;11.20;99.90;;;;;;5038562;28;20040;-85
2023/05/06 06:03:37;;;;;;;;;;;11.20;99.90;;;;;;5024718;28;20047;-85
2023/05/06 06:06:04;;;;;;;;;;;11.30;99.90;;;;;;5039923;28;20481;-86
2023/05/06 06:08:31;;;;;;;;;;;11.40;99.90;;;;;;5029215;28;20038;-86
2023/05/06 06:10:57;;;;;;;;;;;11.50;99.90;;;;;;5027639;28;20015;-86
2023/05/06 06:13:28;;;;;;;;;;;11.60;99.90;;;;;;5033403;28;20067;-86
2023/05/06 06:15:54;;;;;;;;;;;11.80;99.90;;;;;;5035725;28;20055;-86
2023/05/06 06:18:20;;;;;;;;;;;11.90;99.90;;;;;;5046834;28;20053;-86
2023/05/06 06:20:47;;;;;;;;;;;12.00;99.90;;;;;;5031199;28;20069;-86
2023/05/06 06:23:13;;;;;;;;;;;12.10;99.90;;;;;;5030532;28;20041;-85
2023/05/06 06:25:38;;;;;;;;;;;12.20;99.90;;;;;;5034459;28;20037;-86
2023/05/06 06:28:04;;;;;;;;;;;12.30;99.90;;;;;;5033578;28;20054;-86
2023/05/06 06:30:30;;;;;;;;;;;12.40;99.90;;;;;;5024610;28;20369;-86
2023/05/06 06:32:57;;;;;;;;;;;12.50;99.90;;;;;;5030845;28;20749;-86
2023/05/06 06:35:23;;;;;;;;;;;12.60;99.90;;;;;;5027451;28;20504;-86
2023/05/06 06:37:49;;;;;;;13.75;6.10;;;12.80;99.90;;;;;;5032632;28;20128;-86
2023/05/06 06:40:15;;;;;;;9.80;6.60;;;12.90;99.90;;;;;;5025266;28;20080;-86
2023/05/06 06:42:41;;;;;;;11.38;5.78;;;12.90;99.90;;;;;;5031140;28;19917;-86
2023/05/06 06:45:25;;;;;;;10.87;5.93;;;13.00;99.90;;;;;;5047369;28;20035;-86
2023/05/06 06:47:51;;;;;;;10.95;6.38;;;13.10;99.90;;;;;;5030867;28;19955;-86
2023/05/06 06:50:17;;;;;;;9.15;5.80;;;13.20;99.90;;;;;;5018229;28;20041;-85
2023/05/06 06:52:43;;;;;;;9.70;6.75;;;13.30;99.90;;;;;;5033547;28;20030;-87
2023/05/06 06:55:09;;;;;;;10.27;6.63;;;13.30;99.90;;;;;;5021664;28;20381;-85
2023/05/06 06:57:36;;;;;;;7.35;6.00;;;13.50;99.90;;;;;;5036567;28;20516;-86
2023/05/06 07:00:03;;;;;;;11.55;7.10;;;13.60;99.90;;;;;;5031454;28;20084;-87
2023/05/06 07:02:28;;;;;;;10.07;5.97;;;13.90;99.90;;;;;;5032232;28;20385;-86
2023/05/06 07:04:54;;;;;;;10.82;6.50;;;14.10;99.90;;;;;;5030679;28;20036;-86
2023/05/06 07:07:20;;;;;;;12.68;6.28;;;14.30;99.90;;;;;;5032921;28;20149;-85
2023/05/06 07:09:46;;;;;;;9.90;5.78;;;14.50;99.90;;;;;;5029525;28;20017;-86
2023/05/06 07:12:11;;;;;;;8.00;5.47;;;14.60;99.90;;;;;;5034738;28;20024;-86
2023/05/06 07:14:37;;;;;;;7.70;5.22;;;14.90;99.90;;;;;;5039025;28;20080;-86
2023/05/06 07:17:03;;;;;;;8.35;6.55;;;15.00;99.90;;;;;;5031459;28;20087;-86
2023/05/06 07:19:32;;;;;;;6.88;5.25;;;15.20;99.90;;;;;;5023418;28;20064;-87
2023/05/06 07:22:06;;;;;;;6.32;4.90;;;15.40;99.90;;;;;;5021251;28;19909;-86
2023/05/06 07:24:32;;;;;;;9.00;4.50;;;15.70;99.90;;;;;;5024813;28;20489;-85
2023/05/06 07:26:59;;;;;;;5.90;4.78;;;15.70;99.90;;;;;;5018458;28;20025;-86
2023/05/06 07:29:37;;;;;;;8.13;5.68;;;15.70;99.90;;;;;;5018512;28;20033;-86
2023/05/06 07:32:03;;;;;;;13.98;5.75;;;15.40;99.90;;;;;;5031324;28;20380;-87
2023/05/06 07:34:29;;;;;;;20.30;5.47;;;15.40;99.90;;;;;;5025235;28;20030;-87
2023/05/06 07:36:55;;;;;;;7.15;4.72;;;15.20;99.90;;;;;;5029589;28;20583;-87
2023/05/06 07:39:20;;;;;;;6.25;4.55;;;15.10;99.90;;;;;;5049041;28;20025;-87
2023/05/06 07:41:46;;;;;;;7.72;4.78;;;15.00;99.90;;;;;;5028245;28;20030;-87
2023/05/06 07:44:12;;;;;;;7.55;4.72;;;15.00;99.90;;;;;;5051134;28;20037;-87
2023/05/06 07:46:38;;;;;;;5.13;4.00;;;15.30;99.90;;;;;;5036942;28;20026;-87
2023/05/06 07:49:03;;;;;;;8.50;4.65;;;15.50;99.90;;;;;;5020423;28;20477;-86
2023/05/06 07:51:30;;;;;;;6.47;4.10;;;15.50;99.90;;;;;;5033144;28;20116;-87
2023/05/06 07:53:56;;;;;;;16.75;4.57;;;15.70;99.90;;;;;;5035029;28;20021;-87
2023/05/06 07:56:21;;;;;;;11.90;4.03;;;16.00;99.90;;;;;;5032736;28;20033;-87
2023/05/06 07:58:48;;;;;;;5.13;3.55;;;16.00;99.90;;;;;;5031238;28;20108;-87
2023/05/06 08:01:14;;;;;;;4.32;3.10;;;16.00;99.90;;;;;;5015041;28;20037;-86
2023/05/06 08:03:40;;;;;;;3.47;2.25;;;16.20;99.90;;;;;;5031286;28;20373;-86
2023/05/06 08:06:06;;;;;;;6.78;3.03;;;16.20;99.90;;;;;;5013866;28;20018;-87
2023/05/06 08:08:32;;;;;;;5.53;2.58;;;16.40;99.90;;;;;;5032573;28;20013;-87
2023/05/06 08:10:58;;;;;;;3.15;1.80;;;16.70;99.90;;;;;;5034259;28;20535;-87
2023/05/06 08:13:24;;;;;;;3.00;1.42;;;17.00;99.90;;;;;;5036476;28;20116;-87
2023/05/06 08:15:50;;;;;;;5.20;1.85;;;17.10;99.90;;;;;;5035437;28;20092;-87
2023/05/06 08:18:16;;;;;;;2.47;1.77;;;17.30;99.90;;;;;;5042304;28;20586;-88
2023/05/06 08:20:41;;;;;;;2.40;1.30;;;18.00;99.90;;;;;;5023661;28;20060;-87
2023/05/06 08:23:07;;;;;;;4.32;1.83;;;19.30;99.90;;;;;;5021912;28;20029;-87
2023/05/06 08:25:33;;;;;;;6.82;1.95;;;20.20;99.90;;;;;;5035937;28;20072;-87
2023/05/06 08:27:58;;;;;;;4.38;2.13;;;20.30;99.90;;;;;;5035630;28;20037;-88
2023/05/06 08:30:24;;;;;;;3.20;1.70;;;20.10;99.90;;;;;;5035246;28;20040;-87
2023/05/06 08:32:51;;;;;;;5.18;1.77;;;19.90;99.90;;;;;;5033061;28;20030;-87
2023/05/06 08:35:32;;;;;;;5.35;1.33;;;19.80;99.90;;;;;;5030410;28;20033;-87
2023/05/06 08:37:58;;;;;;;5.00;1.30;;;20.00;99.90;;;;;;5022887;28;20033;-87
2023/05/06 08:40:25;;;;;;;5.30;1.20;;;20.80;99.90;;;;;;5025636;28;20030;-87
2023/05/06 08:42:56;;;;;;;4.00;1.08;;;21.60;99.90;;;;;;5036348;28;20477;-87
2023/05/06 08:45:22;;;;;;;1.83;1.10;;;22.50;99.90;;;;;;5031705;28;20370;-88
2023/05/06 08:47:48;;;;;;;7.15;1.42;;;22.50;99.90;;;;;;5027861;28;20276;-87
2023/05/06 08:50:14;;;;;;;4.18;1.42;;;22.50;99.90;;;;;;5034887;28;20036;-87
2023/05/06 08:52:40;;;;;;;2.15;1.13;;;22.10;99.90;;;;;;5026371;28;20037;-87
2023/05/06 08:55:08;;;;;;;3.92;1.50;;;22.10;99.90;;;;;;5034130;28;20021;-88
2023/05/06 08:57:35;;;;;;;3.85;0.82;;;22.30;98.90;;;;;;5015683;28;20030;-87
2023/05/06 09:00:01;;;;;;;3.75;1.67;;;22.50;98.60;;;;;;5029506;28;20026;-88
2023/05/06 09:03:05;;;;;;;6.05;0.98;;;22.60;97.00;;;;;;5017721;28;20030;-87
2023/05/06 09:05:30;;;;;;;2.28;0.80;;;22.90;96.30;;;;;;5033318;28;20083;-87
2023/05/06 09:07:56;;;;;;;2.60;1.13;;;24.00;95.00;;;;;;5033261;28;20025;-87
2023/05/06 09:10:22;;;;;;;1.77;0.73;;;24.00;92.90;;;;;;5017605;28;20025;-87
2023/05/06 09:12:48;;;;;;;4.60;1.08;;;23.80;92.60;;;;;;5031247;28;20763;-87
2023/05/06 09:15:13;;;;;;;0.90;0.90;;;23.50;93.90;;;;;;5019301;28;20120;-88
2023/05/06 09:17:39;;;;;;;2.97;1.30;;;23.30;93.20;;;;;;5025993;28;20026;-88
2023/05/06 09:20:08;;;;;;;1.73;0.90;;;23.60;93.00;;;;;;5030340;28;20026;-88
2023/05/06 09:22:37;;;;;;;1.02;0.70;;;23.60;92.30;;;;;;5030424;28;20049;-87
2023/05/06 09:25:04;;;;;;;2.92;1.05;;;24.10;91.00;;;;;;5029003;28;20025;-88
2023/05/06 09:27:48;;;;;;;1.95;1.20;;;24.40;90.40;;;;;;5031372;28;20477;-88
2023/05/06 09:30:14;;;;;;;2.08;1.00;;;24.50;90.20;;;;;;5037200;28;20105;-88
2023/05/06 09:32:40;;;;;;;1.63;0.90;;;24.40;88.00;;;;;;5030770;28;20034;-88
2023/05/06 09:35:07;;;;;;;4.35;1.23;;;24.40;90.40;;;;;;5012372;28;20040;-88
2023/05/06 09:37:33;;;;;;;2.83;0.90;;;24.40;87.50;;;;;;5030574;28;20029;-88
2023/05/06 09:39:59;;;;;;;2.15;1.35;;;23.60;88.00;;;;;;5027806;28;20029;-88
2023/05/06 09:42:27;;;;;;;6.47;1.10;;;23.90;90.60;;;;;;5031936;28;20041;-87
2023/05/06 09:45:07;;;;;;;2.85;0.90;;;24.30;88.30;;;;;;5027947;28;20465;-88
2023/05/06 09:47:34;;;;;;;1.13;0.95;;;24.20;87.20;;;;;;5047257;28;20035;-89
2023/05/06 09:50:41;;;;;;;5.90;3.72;;;24.40;87.20;;;;;;5027230;28;20473;-88
2023/05/06 09:53:08;;;;;;;5.50;4.13;;;24.40;92.90;;;;;;5035866;28;20061;-89
2023/05/06 09:55:35;;;;;;;2.78;1.40;;;24.70;94.00;;;;;;5030442;28;20036;-88
2023/05/06 09:58:03;;;;;;;4.15;2.30;;;24.30;89.80;;;;;;5027412;28;20489;-89
2023/05/06 10:00:31;;;;;;;4.18;3.17;;;23.70;93.60;;;;;;5039625;28;20037;-89
2023/05/06 10:02:58;;;;;;;5.90;2.90;;;24.30;94.50;;;;;;5003665;28;20362;-88
2023/05/06 10:05:25;;;;;;;5.28;2.05;;;24.20;93.00;;;;;;5016576;28;20062;-88
2023/05/06 10:07:52;;;;;;;3.83;2.30;;;23.90;93.30;;;;;;5031062;28;20052;-88
2023/05/06 10:10:18;;;;;;;3.53;1.42;;;23.50;93.10;;;;;;5002363;28;20477;-88
2023/05/06 10:16:07;;;;;;;3.90;2.38;;;22.70;93.80;;;;;;5032669;28;20373;-88
2023/05/06 10:18:35;;;;;;;4.22;2.67;;;22.60;95.70;;;;;;5016079;28;20066;-88
2023/05/06 10:21:06;;;;;;;4.22;2.45;;;22.50;96.40;;;;;;5032500;28;20033;-87
2023/05/06 10:23:50;;;;;;;2.80;1.83;;;22.50;96.50;;;;;;5025481;28;20041;-88
2023/05/06 10:26:18;;;;;;;2.88;1.55;;;23.00;95.10;;;;;;5044540;28;20034;-88
2023/05/06 10:28:49;;;;;;;1.70;1.27;;;23.10;93.10;;;;;;5037772;28;20022;-88
2023/05/06 10:31:15;;;;;;;2.67;1.50;;;23.10;92.80;;;;;;5023015;28;20026;-88
2023/05/06 10:33:46;;;;;;;3.63;1.40;;;22.50;93.90;;;;;;5017433;28;20034;-88
2023/05/06 10:36:20;;;;;;;1.88;1.58;;;21.90;94.30;;;;;;5036852;28;20032;-87
2023/05/06 10:39:03;;;;;;;2.13;1.77;;;21.80;94.90;;;;;;5030718;28;20037;-88
2023/05/06 10:41:30;;;;;;;2.88;1.27;;;21.80;95.70;;;;;;5014886;28;20056;-87
2023/05/06 10:43:56;;;;;;;2.60;1.40;;;21.50;95.80;;;;;;5016480;28;20037;-87
2023/05/06 10:46:23;;;;;;;3.53;0.95;;;21.50;95.60;;;;;;5042627;28;20469;-87
2023/05/06 10:49:10;;;;;;;2.95;1.42;;;21.90;94.40;;;;;;5032401;28;20026;-88
2023/05/06 10:51:42;;;;;;;4.43;1.33;;;22.00;93.30;;;;;;5014272;28;20048;-87
2023/05/06 10:54:28;;;;;;;1.13;0.80;;;22.00;94.20;;;;;;5014100;28;20064;-87
2023/05/06 10:56:54;;;;;;;2.95;1.20;;;22.10;94.20;;;;;;5034859;28;20567;-87
2023/05/06 10:59:22;;;;;;;4.60;1.13;;;21.90;93.50;;;;;;5035128;28;20026;-87
2023/05/06 11:01:55;;;;;;;3.78;1.52;;;21.70;94.70;;;;;;5031117;28;20034;-86
2023/05/06 11:04:21;;;;;;;2.30;1.55;;;21.40;95.20;;;;;;5010797;28;20033;-87
2023/05/06 11:06:48;;;;;;;1.42;1.13;;;21.40;95.10;;;;;;5030936;28;20018;-87
2023/05/06 11:09:26;;;;;;;3.30;1.60;;;21.50;95.20;;;;;;5012855;28;20028;-87
2023/05/06 11:12:03;;;;;;;4.32;1.60;;;22.00;94.90;;;;;;5025847;28;20030;-87
2023/05/06 11:14:36;;;;;;;2.25;1.38;;;22.20;94.50;;;;;;5020454;28;20120;-87
2023/05/06 11:17:07;;;;;;;5.50;1.77;;;22.30;95.20;;;;;;5039186;28;20034;-87
2023/05/06 11:19:35;;;;;;;3.13;1.63;;;22.30;95.00;;;;;;5029681;28;20037;-87
2023/05/06 11:22:03;;;;;;;3.58;1.27;;;22.10;95.00;;;;;;5038233;28;20032;-87
2023/05/06 11:24:40;;;;;;;2.35;1.40;;;21.80;94.70;;;;;;5019389;28;20038;-86
2023/05/06 11:27:08;;;;;;;3.30;1.27;;;21.50;95.50;;;;;;5035037;28;20032;-87
2023/05/06 11:29:34;;;;;;;2.78;1.33;;;21.60;97.10;;;;;;5022018;28;20029;-87
2023/05/06 11:31:59;;;;;;;3.17;1.50;;;21.70;96.30;;;;;;5029618;28;20032;-86
2023/05/06 11:34:30;;;;;;;8.75;1.40;;;22.30;95.30;;;;;;5032173;28;20380;-86
2023/05/06 11:37:05;;;;;;;4.57;2.42;;;22.90;93.70;;;;;;5030842;28;20030;-87
2023/05/06 11:39:33;;;;;;;10.73;1.58;;;23.20;93.10;;;;;;5036121;28;20493;-87
2023/05/06 11:42:05;;;;;;;3.28;1.20;;;23.40;92.60;;;;;;5029203;28;20029;-87
2023/05/06 11:44:33;;;;;;;1.83;1.08;;;22.90;91.70;;;;;;5024117;28;20117;-87
2023/05/06 11:47:07;;;;;;;4.43;1.27;;;22.70;92.30;;;;;;5036719;28;20033;-87
2023/05/06 11:49:42;;;;;;;3.17;1.33;;;22.30;93.10;;;;;;5037400;28;20022;-87
2023/05/06 11:52:09;;;;;;;2.78;1.23;;;22.20;92.80;;;;;;5045939;28;20033;-87
2023/05/06 11:54:38;;;;;;;3.92;1.67;;;21.90;93.70;;;;;;5034399;28;20053;-87
2023/05/06 11:57:04;;;;;;;3.63;1.52;;;21.80;93.30;;;;;;5030567;28;20062;-86
2023/05/06 11:59:37;;;;;;;2.60;1.50;;;22.00;93.80;;;;;;5034505;28;20568;-87
2023/05/06 12:02:05;;;;;;;1.20;1.10;;;22.20;94.90;;;;;;5024390;28;20052;-87
2023/05/06 12:04:39;;;;;;;1.45;1.10;;;22.10;94.70;;;;;;5031415;28;20033;-87
2023/05/06 12:07:08;;;;;;;2.10;1.20;;;21.90;94.80;;;;;;5029441;28;20036;-86
2023/05/06 12:09:35;;;;;;;1.40;0.88;;;22.00;94.60;;;;;;5044149;28;20030;-87
2023/05/06 12:12:03;;;;;;;4.03;1.23;;;21.90;94.50;;;;;;5017055;28;20029;-87
2023/05/06 12:14:29;;;;;;;3.88;1.40;;;21.80;95.10;;;;;;5025616;28;20567;-86
2023/05/06 12:16:55;;;;;;;1.88;1.30;;;21.70;95.20;;;;;;5035309;28;20014;-86
2023/05/06 12:19:21;;;;;;;8.40;2.00;;;21.40;95.00;;;;;;5026745;28;20480;-86
2023/05/06 12:21:47;;;;;;;2.58;1.20;;;21.10;96.10;;;;;;5029333;28;20108;-87
2023/05/06 12:24:13;;;;;;;3.25;1.65;;;20.90;96.00;;;;;;5021328;28;20105;-86
2023/05/06 12:26:44;;;;;;;4.47;1.40;;;21.00;96.90;;;;;;5032119;28;20376;-87
2023/05/06 12:29:11;;;;;;;;;;;21.10;95.90;;;;;;5035051;28;20044;-87
2023/05/06 12:31:38;;;;;;;3.17;1.48;;;21.00;96.10;;;;;;5032679;28;20364;-88
2023/05/06 12:34:04;;;;;;;3.38;1.30;;;21.30;96.20;;;;;;5040037;28;20079;-87
2023/05/06 12:36:31;;;;;;;6.60;1.60;;;21.00;95.80;;;;;;5017859;28;20317;-88
2023/05/06 12:39:00;;;;;;;4.47;1.63;;;21.30;97.70;;;;;;5034344;28;20056;-88
2023/05/06 12:41:41;;;;;;;2.60;1.95;;;21.70;97.00;;;;;;5022591;28;20061;-87
2023/05/06 12:44:36;;;;;;;3.47;2.00;;;21.70;95.40;;;;;;5028751;28;20117;-87
2023/05/06 12:47:06;;;;;;;2.92;1.77;;;21.50;96.90;;;;;;5030731;28;20088;-86
2023/05/06 12:49:49;;;;;;;3.95;1.63;;;21.60;96.40;;;;;;5031226;28;20037;-87
2023/05/06 12:52:16;;;;;;;1.95;1.10;;;21.80;96.70;;;;;;5017091;28;20485;-87
2023/05/06 12:54:42;;;;;;;1.67;1.40;;;22.40;96.30;;;;;;5030067;28;20029;-87
2023/05/06 12:57:08;;;;;;;5.03;2.15;;;22.70;94.20;;;;;;5039865;28;20025;-87
2023/05/06 13:00:16;;;;;;;1.88;1.52;;;22.80;95.20;;;;;;5031514;28;20092;-87
2023/05/06 13:02:42;;;;;;;5.25;1.90;;;22.80;95.60;;;;;;5044975;28;20029;-87
2023/05/06 13:05:08;;;;;;;2.28;1.67;;;22.80;94.50;;;;;;5006447;28;20652;-87
2023/05/06 13:07:34;;;;;;;5.15;1.83;;;22.60;94.70;;;;;;5031420;28;20034;-87
2023/05/06 13:09:59;;;;;;;2.67;1.63;;;22.40;94.30;;;;;;5017533;28;20034;-87
2023/05/06 13:12:25;;;;;;;2.72;1.55;;;22.10;95.00;;;;;;5033901;28;20022;-87
2023/05/06 13:14:51;;;;;;;5.60;1.60;;;22.00;95.40;;;;;;5034037;28;20064;-87
2023/05/06 13:17:16;;;;;;;2.30;1.80;;;22.10;95.90;;;;;;5030396;28;20128;-87
2023/05/06 13:19:42;;;;;;;2.20;1.73;;;22.10;94.70;;;;;;5038176;28;20052;-87